Time;durP1;ratioP1;P1;durP2;ratioP2;P2;SDS_P1;SDS_P2;PMS_P1;PMS_P2;Temp;Humidity;BMP_temperature;BMP_pressure;BME280_temperature;BME280_humidity;BME280_pressure;Samples;Min_cycle;Max_cycle;Signal;HPM_P1;HPM_P2
2021/07/18 00:00:32;;;;;;;3.63;1.60;;;;;;;;;;5093969;28;20020;-58
2021/07/18 00:02:57;;;;;;;5.70;2.08;;;;;;;;;;5092655;28;20032;-58
2021/07/18 00:05:23;;;;;;;5.00;2.13;;;;;;;;;;5090317;28;20031;-57
2021/07/18 00:07:48;;;;;;;6.68;2.08;;;;;;;;;;5087365;28;20025;-57
2021/07/18 00:10:14;;;;;;;5.10;1.80;;;;;;;;;;5082337;28;20103;-57
2021/07/18 00:12:39;;;;;;;4.70;1.65;;;;;;;;;;5089363;28;20379;-56
2021/07/18 00:15:05;;;;;;;6.20;1.95;;;;;;;;;;5090133;28;20105;-56
2021/07/18 00:17:36;;;;;;;4.25;1.80;;;;;;;;;;5093707;28;20039;-56
2021/07/18 00:20:02;;;;;;;4.78;1.70;;;;;;;;;;5093499;28;20024;-57
2021/07/18 00:22:28;;;;;;;5.95;2.08;;;;;;;;;;5092802;28;20070;-57
2021/07/18 00:24:53;;;;;;;6.63;1.90;;;;;;;;;;5078323;28;20024;-58
2021/07/18 00:27:19;;;;;;;5.82;1.75;;;;;;;;;;5090089;28;20485;-58
2021/07/18 00:29:44;;;;;;;6.45;2.15;;;;;;;;;;5092435;28;20016;-58
2021/07/18 00:32:09;;;;;;;4.95;1.40;;;;;;;;;;5091661;28;20020;-57
2021/07/18 00:34:34;;;;;;;8.23;1.90;;;;;;;;;;5089780;28;20027;-57
2021/07/18 00:37:00;;;;;;;5.32;1.92;;;;;;;;;;5091360;28;20116;-57
2021/07/18 00:39:25;;;;;;;4.90;2.00;;;;;;;;;;5092888;28;20020;-57
2021/07/18 00:41:50;;;;;;;6.43;2.00;;;;;;;;;;5086743;28;20039;-58
2021/07/18 00:44:15;;;;;;;5.88;1.90;;;;;;;;;;5089595;28;20031;-57
2021/07/18 00:46:41;;;;;;;5.28;1.83;;;;;;;;;;5092950;28;20406;-57
2021/07/18 00:49:06;;;;;;;6.85;2.20;;;;;;;;;;5092625;28;20459;-57
2021/07/18 00:51:32;;;;;;;7.70;2.20;;;;;;;;;;5088644;28;20013;-58
2021/07/18 00:53:57;;;;;;;10.20;2.13;;;;;;;;;;5085437;28;20044;-58
2021/07/18 00:56:22;;;;;;;8.45;2.00;;;;;;;;;;5092491;28;20023;-59
2021/07/18 00:58:53;;;;;;;8.07;2.15;;;;;;;;;;5080779;28;20027;-59
2021/07/18 01:01:22;;;;;;;8.02;2.55;;;;;;;;;;5087136;28;20024;-57
2021/07/18 01:03:47;;;;;;;6.70;1.90;;;;;;;;;;5088102;28;20016;-57
2021/07/18 01:06:12;;;;;;;6.03;2.00;;;;;;;;;;5092456;28;20054;-59
2021/07/18 01:08:38;;;;;;;5.57;2.13;;;;;;;;;;5092066;28;20375;-59
2021/07/18 01:11:03;;;;;;;8.98;2.40;;;;;;;;;;5092197;28;20402;-58
2021/07/18 01:13:28;;;;;;;6.35;1.85;;;;;;;;;;5077663;28;20106;-57
2021/07/18 01:15:54;;;;;;;8.13;2.25;;;;;;;;;;5092311;28;20024;-57
2021/07/18 01:18:19;;;;;;;4.95;2.17;;;;;;;;;;5108163;28;20031;-58
2021/07/18 01:20:45;;;;;;;4.97;2.20;;;;;;;;;;5105300;28;20023;-58
2021/07/18 01:23:10;;;;;;;6.93;2.05;;;;;;;;;;5089331;28;20085;-58
2021/07/18 01:25:36;;;;;;;7.03;2.10;;;;;;;;;;5091037;28;20024;-59
2021/07/18 01:28:11;;;;;;;6.82;1.70;;;;;;;;;;5091865;28;20103;-58
2021/07/18 01:30:37;;;;;;;4.55;2.10;;;;;;;;;;5092522;28;20107;-59
2021/07/18 01:33:03;;;;;;;7.18;2.20;;;;;;;;;;5091407;28;20437;-58
2021/07/18 01:35:28;;;;;;;12.93;2.22;;;;;;;;;;5090068;28;20024;-58
2021/07/18 01:37:54;;;;;;;4.47;2.10;;;;;;;;;;5089487;28;20028;-58
2021/07/18 01:40:19;;;;;;;6.20;2.22;;;;;;;;;;5084915;28;20038;-58
2021/07/18 01:42:45;;;;;;;9.40;2.28;;;;;;;;;;5091939;28;20028;-58
2021/07/18 01:45:10;;;;;;;8.70;2.28;;;;;;;;;;5089028;28;20391;-58
2021/07/18 01:47:35;;;;;;;8.20;2.53;;;;;;;;;;5092393;28;20060;-58
2021/07/18 01:50:01;;;;;;;7.10;2.55;;;;;;;;;;5091072;28;20032;-58
2021/07/18 01:52:26;;;;;;;6.15;2.20;;;;;;;;;;5092161;28;20067;-58
2021/07/18 01:54:55;;;;;;;5.88;1.98;;;;;;;;;;5088684;28;20012;-59
2021/07/18 01:57:20;;;;;;;10.40;2.47;;;;;;;;;;5086170;28;20033;-58
2021/07/18 01:59:45;;;;;;;6.97;2.25;;;;;;;;;;5091664;28;20064;-58
2021/07/18 02:02:10;;;;;;;4.50;1.98;;;;;;;;;;5091399;28;20064;-58
2021/07/18 02:04:36;;;;;;;4.95;2.25;;;;;;;;;;5088617;28;20390;-58
2021/07/18 02:07:02;;;;;;;6.60;2.20;;;;;;;;;;5091518;28;20050;-59
2021/07/18 02:09:27;;;;;;;5.47;1.90;;;;;;;;;;5090657;28;20016;-59
2021/07/18 02:11:53;;;;;;;7.82;2.70;;;;;;;;;;5080246;28;20028;-58
2021/07/18 02:14:18;;;;;;;7.78;2.50;;;;;;;;;;5090761;28;20042;-58
2021/07/18 02:16:43;;;;;;;4.95;2.33;;;;;;;;;;5105128;28;20035;-59
2021/07/18 02:19:09;;;;;;;5.93;1.92;;;;;;;;;;5085474;28;20548;-59
2021/07/18 02:21:35;;;;;;;6.72;2.20;;;;;;;;;;5095882;28;20012;-58
2021/07/18 02:24:00;;;;;;;4.53;2.03;;;;;;;;;;5091814;28;20023;-59
2021/07/18 02:26:29;;;;;;;6.70;2.25;;;;;;;;;;5095949;28;20423;-59
2021/07/18 02:28:56;;;;;;;3.70;2.28;;;;;;;;;;5095365;28;20024;-58
2021/07/18 02:31:21;;;;;;;7.63;2.47;;;;;;;;;;5095220;28;20573;-59
2021/07/18 02:33:46;;;;;;;7.00;2.25;;;;;;;;;;5085665;28;20095;-58
2021/07/18 02:36:11;;;;;;;6.00;2.40;;;;;;;;;;5095590;28;20020;-59
2021/07/18 02:38:37;;;;;;;7.03;2.13;;;;;;;;;;5095539;28;20024;-59
2021/07/18 02:41:02;;;;;;;6.97;2.05;;;;;;;;;;5095294;28;20065;-59
2021/07/18 02:43:28;;;;;;;10.35;2.22;;;;;;;;;;5091737;28;20020;-57
2021/07/18 02:45:53;;;;;;;3.45;1.92;;;;;;;;;;5095384;28;20414;-59
2021/07/18 02:48:18;;;;;;;6.90;3.08;;;;;;;;;;5095553;28;20020;-59
2021/07/18 02:50:43;;;;;;;6.00;2.53;;;;;;;;;;5090950;28;20031;-58
2021/07/18 02:53:09;;;;;;;5.00;2.33;;;;;;;;;;5092374;28;20119;-57
2021/07/18 02:55:34;;;;;;;8.70;2.30;;;;;;;;;;5092253;28;20015;-56
2021/07/18 02:57:59;;;;;;;6.63;2.22;;;;;;;;;;5094462;28;20280;-58
2021/07/18 03:00:25;;;;;;;6.22;2.17;;;;;;;;;;5095232;28;20016;-58
2021/07/18 03:02:50;;;;;;;5.40;2.50;;;;;;;;;;5094846;28;20016;-58
2021/07/18 03:05:16;;;;;;;5.03;1.98;;;;;;;;;;5093056;28;20073;-58
2021/07/18 03:07:42;;;;;;;8.95;2.97;;;;;;;;;;5092211;28;20016;-59
2021/07/18 03:10:08;;;;;;;6.05;2.13;;;;;;;;;;5086443;28;20071;-59
2021/07/18 03:12:33;;;;;;;5.32;2.97;;;;;;;;;;5094845;28;20395;-60
2021/07/18 03:15:06;;;;;;;6.65;2.85;;;;;;;;;;5101922;28;20023;-58
2021/07/18 03:17:31;;;;;;;4.28;2.55;;;;;;;;;;5115666;28;20020;-58
2021/07/18 03:19:58;;;;;;;6.78;2.45;;;;;;;;;;5114103;28;20061;-58
2021/07/18 03:22:23;;;;;;;9.90;2.70;;;;;;;;;;5094759;28;20413;-59
2021/07/18 03:24:48;;;;;;;4.57;2.13;;;;;;;;;;5086955;28;20062;-59
2021/07/18 03:27:13;;;;;;;6.90;2.58;;;;;;;;;;5094501;28;20057;-56
2021/07/18 03:29:38;;;;;;;7.80;2.75;;;;;;;;;;5094575;28;20058;-58
2021/07/18 03:32:04;;;;;;;5.18;3.00;;;;;;;;;;5093785;28;20016;-58
2021/07/18 03:34:29;;;;;;;8.93;3.10;;;;;;;;;;5092208;28;20024;-57
2021/07/18 03:36:54;;;;;;;6.78;3.35;;;;;;;;;;5093759;28;20026;-58
2021/07/18 03:39:20;;;;;;;8.00;3.88;;;;;;;;;;5094764;28;20066;-58
2021/07/18 03:41:45;;;;;;;10.63;3.85;;;;;;;;;;5090162;28;20020;-58
2021/07/18 03:44:10;;;;;;;9.77;4.95;;;;;;;;;;5087396;28;20028;-59
2021/07/18 03:46:35;;;;;;;12.95;5.03;;;;;;;;;;5094849;28;20033;-58
2021/07/18 03:49:01;;;;;;;9.80;5.07;;;;;;;;;;5094343;28;20451;-59
2021/07/18 03:51:26;;;;;;;7.97;5.03;;;;;;;;;;5093972;28;20399;-59
2021/07/18 03:53:51;;;;;;;11.95;5.30;;;;;;;;;;5091516;28;20531;-58
2021/07/18 03:56:17;;;;;;;9.57;5.28;;;;;;;;;;5093661;28;20061;-59
2021/07/18 03:58:42;;;;;;;8.23;5.32;;;;;;;;;;5085175;28;20095;-59
2021/07/18 04:01:11;;;;;;;9.63;6.10;;;;;;;;;;5074855;28;20020;-59
2021/07/18 04:03:37;;;;;;;10.10;6.32;;;;;;;;;;5091437;28;20032;-59
2021/07/18 04:06:05;;;;;;;8.13;6.20;;;;;;;;;;5093115;28;20486;-58
2021/07/18 04:08:30;;;;;;;8.27;6.20;;;;;;;;;;5092164;28;20390;-58
2021/07/18 04:10:56;;;;;;;15.50;6.18;;;;;;;;;;5093843;28;20020;-58
2021/07/18 04:13:21;;;;;;;17.83;7.03;;;;;;;;;;5091334;28;20031;-58
2021/07/18 04:15:46;;;;;;;10.77;6.97;;;;;;;;;;5088517;28;20098;-58
2021/07/18 04:18:11;;;;;;;9.93;6.43;;;;;;;;;;5093798;28;20467;-59
2021/07/18 04:20:38;;;;;;;10.63;6.43;;;;;;;;;;5093718;28;20030;-59
2021/07/18 04:23:03;;;;;;;10.55;6.45;;;;;;;;;;5092384;28;20012;-58
2021/07/18 04:25:28;;;;;;;7.85;6.30;;;;;;;;;;5092258;28;20038;-58
2021/07/18 04:27:53;;;;;;;8.82;6.80;;;;;;;;;;5092797;28;20024;-58
2021/07/18 04:30:19;;;;;;;10.73;6.70;;;;;;;;;;5093116;28;20460;-59
2021/07/18 04:32:44;;;;;;;8.57;5.85;;;;;;;;;;5089899;28;20090;-59
2021/07/18 04:35:09;;;;;;;9.73;6.75;;;;;;;;;;5071029;28;20095;-58
2021/07/18 04:37:38;;;;;;;8.68;5.97;;;;;;;;;;5082237;28;20065;-58
2021/07/18 04:40:03;;;;;;;9.00;5.65;;;;;;;;;;5092654;28;20472;-59
2021/07/18 04:42:29;;;;;;;11.25;5.78;;;;;;;;;;5091902;28;20050;-58
2021/07/18 04:44:54;;;;;;;11.13;7.00;;;;;;;;;;5090821;28;20102;-59
2021/07/18 04:47:19;;;;;;;8.95;5.78;;;;;;;;;;5093047;28;20281;-59
2021/07/18 04:49:45;;;;;;;9.02;5.90;;;;;;;;;;5085917;28;20025;-59
2021/07/18 04:52:10;;;;;;;8.32;5.78;;;;;;;;;;5074849;28;20009;-58
2021/07/18 04:54:35;;;;;;;9.02;5.60;;;;;;;;;;5091142;28;20013;-58
2021/07/18 04:57:01;;;;;;;7.45;5.07;;;;;;;;;;5092850;28;20059;-59
2021/07/18 04:59:26;;;;;;;6.07;4.90;;;;;;;;;;5091193;28;20059;-57
2021/07/18 05:01:51;;;;;;;7.68;5.57;;;;;;;;;;5092479;28;20111;-57
2021/07/18 05:04:16;;;;;;;7.30;5.70;;;;;;;;;;5084623;28;20099;-59
2021/07/18 05:06:42;;;;;;;8.23;5.78;;;;;;;;;;5090939;28;20024;-58
2021/07/18 05:09:07;;;;;;;8.32;4.90;;;;;;;;;;5089146;28;20371;-59
2021/07/18 05:11:32;;;;;;;7.20;5.28;;;;;;;;;;5092176;28;20028;-59
2021/07/18 05:13:57;;;;;;;8.90;5.57;;;;;;;;;;5088073;28;20460;-58
2021/07/18 05:16:23;;;;;;;7.25;4.80;;;;;;;;;;5091401;28;20022;-58
2021/07/18 05:18:48;;;;;;;10.30;5.15;;;;;;;;;;5091445;28;20026;-58
2021/07/18 05:21:13;;;;;;;8.68;5.32;;;;;;;;;;5091591;28;20556;-58
2021/07/18 05:23:38;;;;;;;5.60;4.68;;;;;;;;;;5087644;28;20032;-58
2021/07/18 05:26:04;;;;;;;7.38;4.70;;;;;;;;;;5087979;28;20027;-58
2021/07/18 05:28:29;;;;;;;10.05;5.05;;;;;;;;;;5091539;28;20118;-59
2021/07/18 05:30:54;;;;;;;7.85;5.45;;;;;;;;;;5091666;28;20099;-58
2021/07/18 05:33:19;;;;;;;10.48;5.13;;;;;;;;;;5088828;28;20020;-58
2021/07/18 05:35:45;;;;;;;7.45;4.63;;;;;;;;;;5092410;28;20016;-58
2021/07/18 05:38:10;;;;;;;8.52;4.97;;;;;;;;;;5091834;28;20016;-57
2021/07/18 05:40:35;;;;;;;8.02;5.20;;;;;;;;;;5091609;28;20012;-59
2021/07/18 05:43:01;;;;;;;8.80;4.82;;;;;;;;;;5088421;28;20012;-58
2021/07/18 05:45:26;;;;;;;8.93;4.32;;;;;;;;;;5087451;28;20024;-59
2021/07/18 05:47:51;;;;;;;8.07;4.53;;;;;;;;;;5091429;28;20031;-59
2021/07/18 05:50:17;;;;;;;10.80;4.72;;;;;;;;;;5091456;28;20383;-59
2021/07/18 05:52:42;;;;;;;7.20;4.38;;;;;;;;;;5094076;28;20118;-59
2021/07/18 05:55:08;;;;;;;7.72;4.10;;;;;;;;;;5091658;28;20019;-58
2021/07/18 05:57:34;;;;;;;6.78;4.22;;;;;;;;;;5088690;28;20023;-59
2021/07/18 05:59:59;;;;;;;9.65;4.70;;;;;;;;;;5096077;28;20111;-59
2021/07/18 06:02:25;;;;;;;6.03;4.45;;;;;;;;;;5094762;28;20020;-59
2021/07/18 06:04:50;;;;;;;7.20;4.32;;;;;;;;;;5089286;28;20072;-58
2021/07/18 06:07:16;;;;;;;5.97;4.05;;;;;;;;;;5095446;28;20043;-58
2021/07/18 06:09:41;;;;;;;6.95;4.43;;;;;;;;;;5095231;28;20016;-58
2021/07/18 06:12:06;;;;;;;8.68;4.57;;;;;;;;;;5092091;28;20044;-58
2021/07/18 06:14:32;;;;;;;13.13;4.75;;;;;;;;;;5092909;28;20024;-58
2021/07/18 06:16:57;;;;;;;5.93;4.57;;;;;;;;;;5094009;28;20020;-59
2021/07/18 06:19:22;;;;;;;5.55;4.15;;;;;;;;;;5098585;28;20107;-56
2021/07/18 06:21:48;;;;;;;11.65;4.20;;;;;;;;;;5090433;28;20035;-57
2021/07/18 06:24:13;;;;;;;8.20;4.03;;;;;;;;;;5094479;28;20024;-58
2021/07/18 06:26:39;;;;;;;6.03;4.25;;;;;;;;;;5095238;28;20108;-58
2021/07/18 06:29:04;;;;;;;5.22;3.78;;;;;;;;;;5092818;28;20019;-58
2021/07/18 06:31:33;;;;;;;5.63;3.65;;;;;;;;;;5093979;28;20062;-58
2021/07/18 06:33:59;;;;;;;7.30;4.30;;;;;;;;;;5092750;28;20073;-57
2021/07/18 06:36:24;;;;;;;3.80;3.45;;;;;;;;;;5094827;28;20041;-58
2021/07/18 06:38:49;;;;;;;5.00;3.97;;;;;;;;;;5092630;28;20022;-56
2021/07/18 06:41:14;;;;;;;6.50;3.80;;;;;;;;;;5093477;28;20108;-58
2021/07/18 06:43:40;;;;;;;7.38;3.05;;;;;;;;;;5089720;28;20071;-59
2021/07/18 06:46:05;;;;;;;4.85;3.55;;;;;;;;;;5094488;28;20042;-59
2021/07/18 06:48:30;;;;;;;4.50;3.03;;;;;;;;;;5093719;28;20059;-58
2021/07/18 06:50:56;;;;;;;6.73;4.00;;;;;;;;;;5090890;28;20028;-57
2021/07/18 06:53:21;;;;;;;5.40;3.30;;;;;;;;;;5093821;28;20351;-57
2021/07/18 06:55:47;;;;;;;8.68;3.72;;;;;;;;;;5093495;28;20012;-57
2021/07/18 06:58:12;;;;;;;4.20;3.80;;;;;;;;;;5094013;28;20020;-59
2021/07/18 07:00:37;;;;;;;6.28;3.90;;;;;;;;;;5095117;28;20250;-59
2021/07/18 07:03:03;;;;;;;6.13;3.90;;;;;;;;;;5093553;28;20016;-57
2021/07/18 07:05:28;;;;;;;4.97;3.55;;;;;;;;;;5091395;28;20399;-58
2021/07/18 07:07:53;;;;;;;4.85;3.05;;;;;;;;;;5093367;28;20020;-57
2021/07/18 07:10:19;;;;;;;7.63;3.13;;;;;;;;;;5094470;28;20073;-58
2021/07/18 07:12:45;;;;;;;5.85;3.28;;;;;;;;;;5092668;28;20832;-58
2021/07/18 07:15:11;;;;;;;4.43;3.15;;;;;;;;;;5092181;28;20016;-59
2021/07/18 07:17:36;;;;;;;4.38;3.03;;;;;;;;;;5093950;28;20024;-59
2021/07/18 07:20:03;;;;;;;5.75;3.05;;;;;;;;;;5093662;28;20020;-57
2021/07/18 07:22:28;;;;;;;5.55;3.28;;;;;;;;;;5094389;28;20031;-59
2021/07/18 07:24:54;;;;;;;4.50;3.15;;;;;;;;;;5091673;28;20024;-58
2021/07/18 07:27:19;;;;;;;5.95;2.92;;;;;;;;;;5094192;28;20031;-58
2021/07/18 07:29:44;;;;;;;5.87;3.20;;;;;;;;;;5074916;28;20016;-58
2021/07/18 07:32:09;;;;;;;5.45;3.35;;;;;;;;;;5096773;28;20299;-59
2021/07/18 07:34:35;;;;;;;4.68;2.88;;;;;;;;;;5092380;28;20089;-59
2021/07/18 07:37:00;;;;;;;5.10;3.20;;;;;;;;;;5094645;28;20029;-59
2021/07/18 07:39:25;;;;;;;5.32;2.85;;;;;;;;;;5092971;28;20024;-59
2021/07/18 07:41:51;;;;;;;7.78;2.63;;;;;;;;;;5094259;28;20028;-59
2021/07/18 07:44:16;;;;;;;6.20;3.03;;;;;;;;;;5091806;28;20514;-59
2021/07/18 07:46:42;;;;;;;3.78;2.60;;;;;;;;;;5094626;28;20044;-59
2021/07/18 07:49:07;;;;;;;4.70;2.75;;;;;;;;;;5094056;28;20016;-59
2021/07/18 07:51:33;;;;;;;4.35;2.50;;;;;;;;;;5093884;28;20016;-59
2021/07/18 07:53:58;;;;;;;3.63;2.63;;;;;;;;;;5092492;28;20097;-58
2021/07/18 07:56:24;;;;;;;5.10;2.63;;;;;;;;;;5092603;28;20020;-58
2021/07/18 07:58:49;;;;;;;4.45;3.03;;;;;;;;;;5089036;28;20040;-58
2021/07/18 08:01:15;;;;;;;5.97;2.13;;;;;;;;;;5088927;28;20105;-58
2021/07/18 08:03:40;;;;;;;5.97;2.33;;;;;;;;;;5092179;28;20029;-58
2021/07/18 08:06:05;;;;;;;5.13;1.85;;;;;;;;;;5091349;28;20545;-58
2021/07/18 08:08:30;;;;;;;5.20;1.95;;;;;;;;;;5093083;28;20032;-58
2021/07/18 08:10:57;;;;;;;3.55;1.60;;;;;;;;;;5091865;28;20030;-58
2021/07/18 08:13:23;;;;;;;4.65;2.00;;;;;;;;;;5090262;28;20016;-58
2021/07/18 08:15:48;;;;;;;5.03;2.00;;;;;;;;;;5093523;28;20065;-58
2021/07/18 08:18:13;;;;;;;5.97;1.90;;;;;;;;;;5089137;28;20047;-59
2021/07/18 08:20:38;;;;;;;4.03;2.33;;;;;;;;;;5091962;28;20036;-57
2021/07/18 08:23:04;;;;;;;4.43;2.60;;;;;;;;;;5091613;28;20311;-57
2021/07/18 08:25:29;;;;;;;5.38;2.13;;;;;;;;;;5091333;28;20034;-58
2021/07/18 08:27:55;;;;;;;3.08;1.92;;;;;;;;;;5091103;28;20016;-58
2021/07/18 08:30:20;;;;;;;2.35;1.90;;;;;;;;;;5090968;28;20020;-59
2021/07/18 08:32:45;;;;;;;5.65;2.33;;;;;;;;;;5092795;28;20052;-58
2021/07/18 08:35:11;;;;;;;1.92;1.65;;;;;;;;;;5088277;28;20409;-58
2021/07/18 08:37:37;;;;;;;4.15;1.85;;;;;;;;;;5090957;28;20419;-58
2021/07/18 08:40:03;;;;;;;2.97;1.63;;;;;;;;;;5089373;28;20023;-58
2021/07/18 08:42:29;;;;;;;2.78;1.50;;;;;;;;;;5092147;28;20493;-58
2021/07/18 08:44:57;;;;;;;4.13;2.00;;;;;;;;;;5089069;28;20020;-58
2021/07/18 08:47:22;;;;;;;5.30;2.10;;;;;;;;;;5092662;28;20016;-58
2021/07/18 08:49:47;;;;;;;2.47;1.65;;;;;;;;;;5091974;28;20095;-59
2021/07/18 08:52:13;;;;;;;3.72;1.52;;;;;;;;;;5090333;28;20514;-59
2021/07/18 08:54:38;;;;;;;3.05;1.58;;;;;;;;;;5086230;28;20482;-58
2021/07/18 08:57:03;;;;;;;3.28;1.42;;;;;;;;;;5088979;28;20020;-59
2021/07/18 08:59:29;;;;;;;4.25;1.83;;;;;;;;;;5091130;28;20035;-59
2021/07/18 09:01:55;;;;;;;3.63;1.70;;;;;;;;;;5090653;28;20020;-58
2021/07/18 09:04:20;;;;;;;2.65;2.03;;;;;;;;;;5087069;28;21588;-58
2021/07/18 09:06:47;;;;;;;5.32;1.77;;;;;;;;;;5092254;28;20107;-58
2021/07/18 09:09:22;;;;;;;2.75;1.67;;;;;;;;;;5096216;28;20016;-58
2021/07/18 09:11:55;;;;;;;4.28;1.40;;;;;;;;;;5090403;28;20012;-56
2021/07/18 09:14:21;;;;;;;4.63;1.70;;;;;;;;;;5088535;28;20012;-59
2021/07/18 09:16:48;;;;;;;5.55;1.75;;;;;;;;;;5090269;28;20024;-58
2021/07/18 09:19:15;;;;;;;2.10;1.60;;;;;;;;;;5087198;28;20520;-58
2021/07/18 09:21:47;;;;;;;3.38;1.33;;;;;;;;;;5090064;28;20478;-58
2021/07/18 09:24:21;;;;;;;2.85;1.77;;;;;;;;;;5085651;28;20046;-59
2021/07/18 09:27:05;;;;;;;3.70;1.65;;;;;;;;;;5088884;28;20020;-58
2021/07/18 09:29:30;;;;;;;2.85;1.92;;;;;;;;;;5091324;28;20043;-59
2021/07/18 09:32:06;;;;;;;3.83;1.65;;;;;;;;;;5085392;28;20482;-59
2021/07/18 09:34:35;;;;;;;2.80;1.58;;;;;;;;;;5086420;28;20051;-59
2021/07/18 09:37:10;;;;;;;2.80;1.70;;;;;;;;;;5081160;28;20021;-59
2021/07/18 09:39:37;;;;;;;4.07;1.60;;;;;;;;;;5096050;28;20459;-59
2021/07/18 09:42:02;;;;;;;4.85;1.92;;;;;;;;;;5111627;28;20485;-58
2021/07/18 09:44:27;;;;;;;6.45;2.08;;;;;;;;;;5092430;28;20032;-59
2021/07/18 09:46:59;;;;;;;3.33;1.83;;;;;;;;;;5077646;28;20048;-66
2021/07/18 09:49:32;;;;;;;3.88;2.17;;;;;;;;;;5090460;28;20024;-66
2021/07/18 09:52:23;;;;;;;2.67;2.13;;;;;;;;;;5089557;28;20016;-65
2021/07/18 09:54:50;;;;;;;3.35;2.33;;;;;;;;;;5081825;28;20053;-66
2021/07/18 09:57:35;;;;;;;4.97;2.10;;;;;;;;;;5074868;28;20026;-66
2021/07/18 10:00:01;;;;;;;5.53;2.60;;;;;;;;;;5090720;28;20012;-66
2021/07/18 10:02:27;;;;;;;3.67;2.10;;;;;;;;;;5090653;28;20024;-66
2021/07/18 10:04:53;;;;;;;8.30;3.08;;;;;;;;;;5088108;28;20020;-65
2021/07/18 10:07:20;;;;;;;2.60;2.40;;;;;;;;;;5090888;28;20020;-63
2021/07/18 10:09:45;;;;;;;5.32;2.58;;;;;;;;;;5091094;28;20024;-64
2021/07/18 10:12:10;;;;;;;8.10;3.30;;;;;;;;;;5091289;28;20039;-64
2021/07/18 10:14:36;;;;;;;2.85;2.47;;;;;;;;;;5087949;28;20364;-65
2021/07/18 10:17:01;;;;;;;6.03;3.20;;;;;;;;;;5090792;28;20065;-64
2021/07/18 10:19:27;;;;;;;4.07;3.72;;;;;;;;;;5090296;28;20092;-66
2021/07/18 10:21:52;;;;;;;7.88;4.47;;;;;;;;;;5091913;28;20020;-66
2021/07/18 10:24:18;;;;;;;6.90;4.78;;;;;;;;;;5088957;28;20028;-66
2021/07/18 10:26:43;;;;;;;5.90;4.65;;;;;;;;;;5091453;28;20043;-67
2021/07/18 10:29:09;;;;;;;6.93;5.80;;;;;;;;;;5090706;28;20083;-67
2021/07/18 10:31:51;;;;;;;6.82;6.13;;;;;;;;;;5083624;28;20255;-67
2021/07/18 10:34:18;;;;;;;6.03;5.40;;;;;;;;;;5081154;28;20012;-66
2021/07/18 10:36:43;;;;;;;6.22;5.65;;;;;;;;;;5085533;28;20490;-65
2021/07/18 10:39:28;;;;;;;5.55;5.05;;;;;;;;;;5090874;28;20023;-65
2021/07/18 10:41:53;;;;;;;;;;;;;;;;;;5093569;28;20024;-65
2021/07/18 10:44:18;;;;;;;;;;;;;;;;;;5092253;28;19904;-66
2021/07/18 10:46:44;;;;;;;6.63;5.03;;;;;;;;;;5094807;28;19908;-66
2021/07/18 10:49:15;;;;;;;5.50;5.00;;;;;;;;;;5094945;28;20266;-65
2021/07/18 10:51:41;;;;;;;4.60;3.13;;;;;;;;;;5094846;28;20408;-66
2021/07/18 10:54:13;;;;;;;3.33;2.33;;;;;;;;;;5090996;28;20122;-66
2021/07/18 10:56:40;;;;;;;7.35;3.00;;;;;;;;;;5095094;28;20020;-66
2021/07/18 10:59:05;;;;;;;6.13;3.58;;;;;;;;;;5093148;28;20020;-65
2021/07/18 11:01:31;;;;;;;7.53;4.60;;;;;;;;;;5093436;28;20057;-65
2021/07/18 11:03:57;;;;;;;5.75;4.30;;;;;;;;;;5091184;28;20016;-66
2021/07/18 11:06:28;;;;;;;5.38;4.10;;;;;;;;;;5094829;28;20123;-67
2021/07/18 11:09:05;;;;;;;4.80;3.35;;;;;;;;;;5095020;28;20031;-66
2021/07/18 11:11:37;;;;;;;4.00;2.67;;;;;;;;;;5088259;28;20081;-67
2021/07/18 11:14:22;;;;;;;5.40;2.38;;;;;;;;;;5089795;28;20024;-67
2021/07/18 11:16:47;;;;;;;3.22;2.42;;;;;;;;;;5094922;28;20027;-66
2021/07/18 11:19:31;;;;;;;3.63;3.28;;;;;;;;;;5093828;28;20053;-66
2021/07/18 11:21:56;;;;;;;4.05;2.85;;;;;;;;;;5086666;28;20022;-66
2021/07/18 11:24:40;;;;;;;3.37;2.83;;;;;;;;;;5091064;28;20098;-67
2021/07/18 11:27:25;;;;;;;6.15;2.90;;;;;;;;;;5092541;28;20035;-66
2021/07/18 11:29:50;;;;;;;3.65;2.35;;;;;;;;;;5094266;28;20073;-67
2021/07/18 11:32:21;;;;;;;3.00;2.33;;;;;;;;;;5090576;28;20016;-66
2021/07/18 11:34:46;;;;;;;2.45;2.22;;;;;;;;;;5090732;28;20741;-64
2021/07/18 11:37:12;;;;;;;4.30;2.67;;;;;;;;;;5094008;28;20039;-65
2021/07/18 11:39:37;;;;;;;5.10;2.50;;;;;;;;;;5094232;28;20028;-66
2021/07/18 11:42:03;;;;;;;2.38;2.15;;;;;;;;;;5093127;28;20020;-67
2021/07/18 11:44:30;;;;;;;3.40;2.13;;;;;;;;;;5089856;28;20085;-66
2021/07/18 11:46:57;;;;;;;3.22;1.98;;;;;;;;;;5093979;28;20129;-66
2021/07/18 11:49:25;;;;;;;2.08;1.98;;;;;;;;;;5094145;28;20027;-67
2021/07/18 11:51:50;;;;;;;3.15;2.40;;;;;;;;;;5091949;28;20021;-66
2021/07/18 11:54:16;;;;;;;3.87;2.17;;;;;;;;;;5090178;28;20047;-66
2021/07/18 11:56:43;;;;;;;2.80;1.67;;;;;;;;;;5093853;28;20016;-66
2021/07/18 11:59:08;;;;;;;2.75;1.65;;;;;;;;;;5092945;28;20016;-66
2021/07/18 12:01:35;;;;;;;3.37;1.60;;;;;;;;;;5092650;28;20069;-66
2021/07/18 12:04:00;;;;;;;2.58;1.70;;;;;;;;;;5090427;28;20704;-66
2021/07/18 12:06:27;;;;;;;2.70;1.83;;;;;;;;;;5093345;28;20048;-66
2021/07/18 12:08:53;;;;;;;4.68;1.52;;;;;;;;;;5093296;28;20028;-67
2021/07/18 12:11:23;;;;;;;3.15;1.17;;;;;;;;;;5098955;28;20049;-67
2021/07/18 12:13:49;;;;;;;2.03;1.02;;;;;;;;;;5087799;28;20016;-67
2021/07/18 12:16:15;;;;;;;4.30;1.10;;;;;;;;;;5113819;28;20047;-67
2021/07/18 12:18:44;;;;;;;2.33;1.23;;;;;;;;;;5114285;28;20054;-66
2021/07/18 12:21:29;;;;;;;2.10;1.10;;;;;;;;;;5102419;28;20269;-66
2021/07/18 12:23:54;;;;;;;;;;;;;;;;;;5084692;28;20023;-66
2021/07/18 12:26:20;;;;;;;3.05;1.10;;;;;;;;;;5093220;28;19912;-65
2021/07/18 12:28:46;;;;;;;3.17;0.82;;;;;;;;;;5092614;28;20024;-66
2021/07/18 12:31:13;;;;;;;2.08;0.95;;;;;;;;;;5093311;28;20069;-67
2021/07/18 12:33:38;;;;;;;2.63;0.90;;;;;;;;;;5088903;28;20467;-66
2021/07/18 12:36:04;;;;;;;1.70;0.50;;;;;;;;;;5083055;28;20020;-66
2021/07/18 12:38:29;;;;;;;1.65;0.60;;;;;;;;;;5092398;28;20085;-66
2021/07/18 12:41:01;;;;;;;2.10;0.40;;;;;;;;;;5089217;28;20031;-66
2021/07/18 12:43:27;;;;;;;2.63;0.63;;;;;;;;;;5089151;28;20024;-67
2021/07/18 12:45:52;;;;;;;2.05;0.40;;;;;;;;;;5092300;28;20038;-67
2021/07/18 12:48:21;;;;;;;1.13;0.40;;;;;;;;;;5092158;28;20027;-68
2021/07/18 12:50:47;;;;;;;1.42;0.50;;;;;;;;;;5090748;28;20038;-67
2021/07/18 12:53:20;;;;;;;2.70;0.73;;;;;;;;;;5081036;28;20028;-67
2021/07/18 12:55:57;;;;;;;1.33;0.60;;;;;;;;;;5092826;28;20111;-67
2021/07/18 12:58:22;;;;;;;1.75;0.57;;;;;;;;;;5092730;28;20383;-69
2021/07/18 13:01:01;;;;;;;1.40;0.57;;;;;;;;;;5092423;28;20020;-69
2021/07/18 13:03:34;;;;;;;2.10;0.50;;;;;;;;;;5084870;28;20126;-68
2021/07/18 13:06:07;;;;;;;1.75;0.95;;;;;;;;;;5087405;28;20103;-69
2021/07/18 13:08:42;;;;;;;1.27;0.70;;;;;;;;;;5081981;28;20107;-69
2021/07/18 13:11:26;;;;;;;1.85;0.47;;;;;;;;;;5082887;28;20352;-68
2021/07/18 13:13:51;;;;;;;1.27;0.30;;;;;;;;;;5080743;28;20069;-70
2021/07/18 13:16:16;;;;;;;1.33;0.40;;;;;;;;;;5091975;28;20534;-69
2021/07/18 13:18:42;;;;;;;2.10;0.50;;;;;;;;;;5090591;28;20039;-69
2021/07/18 13:21:14;;;;;;;2.13;0.60;;;;;;;;;;5090217;28;20032;-68
2021/07/18 13:23:44;;;;;;;1.40;0.50;;;;;;;;;;5076180;28;20364;-68
2021/07/18 13:26:29;;;;;;;1.60;0.52;;;;;;;;;;5089872;28;20043;-68
2021/07/18 13:29:09;;;;;;;0.90;0.50;;;;;;;;;;5083364;28;20380;-68
2021/07/18 13:31:35;;;;;;;2.22;0.50;;;;;;;;;;5089676;28;20073;-68
2021/07/18 13:34:03;;;;;;;1.27;0.47;;;;;;;;;;5074956;28;20406;-68
2021/07/18 13:36:28;;;;;;;0.95;0.50;;;;;;;;;;5071926;28;20066;-68
2021/07/18 13:38:54;;;;;;;1.53;0.40;;;;;;;;;;5081035;28;20467;-68
2021/07/18 13:41:22;;;;;;;2.00;0.50;;;;;;;;;;5088138;28;20471;-69
2021/07/18 13:43:48;;;;;;;2.15;0.50;;;;;;;;;;5077344;28;20028;-68
2021/07/18 13:46:13;;;;;;;1.33;0.70;;;;;;;;;;5087395;28;20086;-69
2021/07/18 13:48:38;;;;;;;1.90;0.40;;;;;;;;;;5085205;28;20322;-69
2021/07/18 13:51:04;;;;;;;1.25;0.60;;;;;;;;;;5087819;28;20075;-68
2021/07/18 13:53:30;;;;;;;3.55;0.80;;;;;;;;;;5077645;28;20047;-69
2021/07/18 13:55:56;;;;;;;1.55;0.70;;;;;;;;;;5090514;28;20032;-68
2021/07/18 13:58:24;;;;;;;1.60;0.77;;;;;;;;;;5090744;28;20454;-69
2021/07/18 14:00:49;;;;;;;1.17;0.65;;;;;;;;;;5088613;28;20027;-68
2021/07/18 14:03:15;;;;;;;1.97;0.83;;;;;;;;;;5085998;28;20024;-69
2021/07/18 14:05:40;;;;;;;2.53;0.50;;;;;;;;;;5072782;28;20021;-69
2021/07/18 14:08:09;;;;;;;2.43;0.60;;;;;;;;;;5072044;28;20387;-68
2021/07/18 14:10:34;;;;;;;0.65;0.40;;;;;;;;;;5071377;28;20423;-68
2021/07/18 14:12:59;;;;;;;0.75;0.43;;;;;;;;;;5070833;28;20541;-68
2021/07/18 14:15:25;;;;;;;2.80;0.80;;;;;;;;;;5086329;28;20065;-66
2021/07/18 14:17:50;;;;;;;0.80;0.50;;;;;;;;;;5084240;28;20021;-68
2021/07/18 14:20:17;;;;;;;0.75;0.40;;;;;;;;;;5080577;28;20042;-69
2021/07/18 14:22:43;;;;;;;2.05;0.60;;;;;;;;;;5095951;28;20035;-69
2021/07/18 14:25:09;;;;;;;1.35;0.60;;;;;;;;;;5085219;28;20025;-69
2021/07/18 14:27:35;;;;;;;0.70;0.45;;;;;;;;;;5081093;28;20081;-70
2021/07/18 14:30:00;;;;;;;1.58;0.70;;;;;;;;;;5090958;28;20036;-70
2021/07/18 14:32:26;;;;;;;1.08;0.35;;;;;;;;;;5095563;28;20027;-70
2021/07/18 14:34:52;;;;;;;1.38;0.68;;;;;;;;;;5080379;28;20019;-69
2021/07/18 14:37:17;;;;;;;1.55;0.80;;;;;;;;;;5084557;28;20073;-69
2021/07/18 14:39:42;;;;;;;1.40;0.50;;;;;;;;;;5075212;28;20067;-70